createdAt,value
2022-08-23T00:03:05.498Z,19.64
2022-08-23T00:07:11.815Z,19.61
2022-08-23T00:11:32.127Z,19.59
2022-08-23T00:15:33.803Z,19.55
2022-08-23T00:19:36.846Z,19.54
2022-08-23T00:23:38.448Z,19.55
2022-08-23T00:27:40.142Z,19.56
2022-08-23T00:31:41.920Z,19.60
2022-08-23T00:35:44.602Z,19.68
2022-08-23T00:39:46.309Z,19.73
2022-08-23T00:44:07.361Z,19.72
2022-08-23T00:48:09.035Z,19.73
2022-08-23T00:52:31.006Z,19.72
2022-08-23T00:56:36.404Z,19.73
2022-08-23T01:00:38.080Z,19.75
2022-08-23T01:04:44.550Z,19.74
2022-08-23T01:08:52.299Z,19.69
2022-08-23T01:13:03.899Z,19.63
2022-08-23T01:17:12.585Z,19.59
2022-08-23T01:21:21.856Z,19.56
2022-08-23T01:25:25.894Z,19.52
2022-08-23T01:29:28.019Z,19.51
2022-08-23T01:33:29.837Z,19.53
2022-08-23T01:37:31.709Z,19.55
2022-08-23T01:41:33.782Z,19.57
2022-08-23T01:45:37.226Z,19.60
2022-08-23T01:49:41.990Z,19.65
2022-08-23T01:53:44.058Z,19.68
2022-08-23T01:57:49.477Z,19.70
2022-08-23T02:01:53.533Z,19.71
2022-08-23T02:05:57.854Z,19.72
2022-08-23T02:09:59.713Z,19.71
2022-08-23T02:14:05.633Z,19.72
2022-08-23T02:18:16.312Z,19.72
2022-08-23T02:22:18.721Z,19.73
2022-08-23T02:26:20.399Z,19.71
2022-08-23T02:30:33.027Z,19.72
2022-08-23T02:34:36.444Z,19.70
2022-08-23T02:38:38.065Z,19.72
2022-08-23T02:42:40.570Z,19.73
2022-08-23T02:46:42.923Z,19.76
2022-08-23T02:50:44.658Z,19.78
2022-08-23T02:54:46.873Z,19.78
2022-08-23T02:58:54.520Z,19.78
2022-08-23T03:02:57.529Z,19.78
2022-08-23T03:06:59.956Z,19.77
2022-08-23T03:11:02.830Z,19.77
2022-08-23T03:15:11.926Z,19.76
2022-08-23T03:19:13.687Z,19.75
2022-08-23T03:23:15.324Z,19.76
2022-08-23T03:27:17.184Z,19.76
2022-08-23T03:31:19.718Z,19.76
2022-08-23T03:35:42.393Z,19.71
2022-08-23T03:39:46.609Z,19.68
2022-08-23T03:43:49.154Z,19.66
2022-08-23T03:47:51.823Z,19.63
2022-08-23T03:51:53.639Z,19.60
2022-08-23T03:55:56.456Z,19.57
2022-08-23T03:59:59.905Z,19.51
2022-08-23T04:04:04.039Z,19.49
2022-08-23T04:08:10.578Z,19.45
2022-08-23T04:12:17.845Z,19.45
2022-08-23T04:16:20.153Z,19.45
2022-08-23T04:20:21.953Z,19.48
2022-08-23T04:24:30.832Z,19.48
2022-08-23T04:28:36.618Z,19.46
2022-08-23T04:32:38.217Z,19.44
2022-08-23T04:36:44.862Z,19.40
2022-08-23T04:41:16.121Z,19.35
2022-08-23T04:45:20.638Z,19.29
2022-08-23T04:49:25.626Z,19.28
2022-08-23T04:53:30.327Z,19.23
2022-08-23T04:57:54.692Z,19.20
2022-08-23T05:02:00.290Z,19.19
2022-08-23T05:06:05.153Z,19.20
2022-08-23T05:10:15.208Z,19.23
2022-08-23T05:14:21.559Z,19.28
2022-08-23T05:18:24.718Z,19.32
2022-08-23T05:22:26.494Z,19.34
2022-08-23T05:27:03.469Z,19.40
2022-08-23T05:31:05.438Z,19.44
2022-08-23T05:35:17.984Z,19.49
2022-08-23T05:39:25.767Z,19.54
2022-08-23T05:43:38.832Z,19.59
2022-08-23T05:47:40.709Z,19.66
2022-08-23T05:51:56.887Z,19.73
2022-08-23T05:56:20.187Z,19.75
2022-08-23T06:00:21.962Z,19.75
2022-08-23T06:04:38.982Z,19.76
2022-08-23T06:08:41.187Z,19.78
2022-08-23T06:12:42.899Z,19.85
2022-08-23T06:16:47.682Z,19.96
2022-08-23T06:21:05.711Z,20.10
2022-08-23T06:25:16.297Z,20.21
2022-08-23T06:29:46.036Z,20.29
2022-08-23T06:34:18.581Z,20.40
2022-08-23T06:38:38.127Z,20.51
2022-08-23T06:42:58.516Z,20.63
2022-08-23T06:47:09.086Z,20.73
2022-08-23T06:51:29.120Z,20.81
2022-08-23T06:55:49.731Z,20.89
2022-08-23T07:00:12.440Z,21.00
2022-08-23T07:04:35.727Z,21.12
2022-08-23T07:09:05.192Z,21.26
2022-08-23T07:13:07.119Z,21.37
2022-08-23T07:17:09.631Z,21.47
2022-08-23T07:21:12.814Z,21.59
2022-08-23T07:25:17.187Z,21.69
2022-08-23T07:29:22.874Z,21.77
2022-08-23T07:33:24.520Z,21.86
2022-08-23T07:37:40.876Z,21.93
2022-08-23T07:41:43.639Z,21.98
2022-08-23T07:45:48.046Z,22.05
2022-08-23T07:49:50.871Z,22.12
2022-08-23T07:53:53.250Z,22.25
2022-08-23T07:57:56.223Z,22.35
2022-08-23T08:02:14.191Z,22.40
2022-08-23T08:06:19.567Z,22.44
2022-08-23T08:10:21.377Z,22.51
2022-08-23T08:14:23.905Z,22.63
2022-08-23T08:18:29.938Z,22.75
2022-08-23T08:22:58.526Z,22.91
2022-08-23T08:27:22.064Z,23.07
2022-08-23T08:31:25.150Z,23.13
2022-08-23T08:35:26.887Z,23.22
2022-08-23T08:39:31.662Z,23.26
2022-08-23T08:43:57.579Z,23.31
2022-08-23T08:48:13.663Z,23.33
2022-08-23T08:52:27.788Z,23.36
2022-08-23T08:56:40.427Z,23.42
2022-08-23T09:00:55.177Z,23.46
2022-08-23T09:05:01.132Z,23.52
2022-08-23T09:09:23.923Z,23.59
2022-08-23T09:14:09.320Z,23.70
2022-08-23T09:18:14.609Z,23.81
2022-08-23T09:22:30.670Z,23.95
2022-08-23T09:26:32.669Z,24.09
2022-08-23T09:30:55.003Z,24.19
2022-08-23T09:35:06.914Z,24.28
2022-08-23T09:39:30.678Z,24.36
2022-08-23T09:43:44.665Z,24.46
2022-08-23T09:47:46.972Z,24.52
2022-08-23T09:51:54.236Z,24.58
2022-08-23T09:55:58.765Z,24.57
2022-08-23T10:00:15.015Z,24.57
2022-08-23T10:04:37.692Z,24.60
2022-08-23T10:08:58.286Z,24.60
2022-08-23T10:13:04.093Z,24.61
2022-08-23T10:17:30.470Z,24.65
2022-08-23T10:21:54.354Z,24.70
2022-08-23T10:26:01.653Z,24.73
2022-08-23T10:30:23.665Z,24.73
2022-08-23T10:34:53.186Z,24.79
2022-08-23T10:39:03.609Z,24.84
2022-08-23T10:43:14.884Z,24.82
2022-08-23T10:47:21.338Z,24.82
2022-08-23T10:51:42.869Z,24.92
2022-08-23T10:56:04.271Z,25.06
2022-08-23T11:00:21.545Z,25.20
2022-08-23T11:04:38.291Z,25.28
2022-08-23T11:08:59.197Z,25.25
2022-08-23T11:13:06.742Z,25.30
2022-08-23T11:17:29.876Z,25.45
2022-08-23T11:21:38.553Z,25.49
2022-08-23T11:25:45.947Z,25.50
2022-08-23T11:29:48.225Z,25.59
2022-08-23T11:34:28.964Z,25.76
2022-08-23T11:38:48.801Z,25.82
2022-08-23T11:42:53.194Z,25.89
2022-08-23T11:46:55.815Z,25.91
2022-08-23T11:51:20.970Z,25.94
2022-08-23T11:55:44.104Z,25.90
2022-08-23T12:00:10.905Z,25.82
2022-08-23T12:04:37.682Z,25.81
2022-08-23T12:09:04.593Z,25.87
2022-08-23T12:13:18.372Z,26.05
2022-08-23T12:17:25.606Z,26.14
2022-08-23T12:21:39.460Z,26.12
2022-08-23T12:25:42.107Z,26.21
2022-08-23T12:30:05.480Z,26.25
2022-08-23T12:34:34.117Z,26.16
2022-08-23T12:38:42.522Z,26.13
2022-08-23T12:42:44.198Z,26.04
2022-08-23T12:46:48.993Z,25.95
2022-08-23T12:50:58.631Z,25.85
2022-08-23T12:55:00.790Z,25.70
2022-08-23T12:59:07.359Z,25.53
2022-08-23T13:03:22.123Z,25.41
2022-08-23T13:07:24.636Z,25.39
2022-08-23T13:11:29.421Z,25.29
2022-08-23T13:15:59.246Z,25.17
2022-08-23T13:20:00.920Z,25.15
2022-08-23T13:24:38.750Z,25.18
2022-08-23T13:28:40.750Z,25.20
2022-08-23T13:32:48.713Z,25.21
2022-08-23T13:36:50.376Z,25.27
2022-08-23T13:40:59.214Z,25.32
2022-08-23T13:45:13.471Z,25.36
2022-08-23T13:49:24.840Z,25.45
2022-08-23T13:53:29.291Z,25.52
2022-08-23T13:57:32.287Z,25.60
2022-08-23T14:01:39.723Z,25.66
2022-08-23T14:05:41.222Z,25.72
2022-08-23T14:09:43.229Z,25.79
2022-08-23T14:13:47.489Z,25.78
2022-08-23T14:17:51.834Z,25.77
2022-08-23T14:21:54.129Z,25.75
2022-08-23T14:25:56.716Z,25.81
2022-08-23T14:29:58.393Z,25.87
2022-08-23T14:34:02.205Z,25.89
2022-08-23T14:38:13.433Z,25.90
2022-08-23T14:42:19.487Z,25.92
2022-08-23T14:46:23.074Z,25.92
2022-08-23T14:50:24.730Z,25.86
2022-08-23T14:54:29.845Z,25.79
2022-08-23T14:58:48.557Z,25.63
2022-08-23T15:02:50.335Z,25.56
2022-08-23T15:07:16.709Z,25.56
2022-08-23T15:15:37.531Z,25.61
2022-08-23T15:19:39.874Z,25.71
2022-08-23T15:23:43.983Z,25.67
2022-08-23T15:27:47.159Z,25.68
2022-08-23T15:31:48.750Z,25.68
2022-08-23T15:35:52.236Z,25.51
2022-08-23T15:39:54.205Z,25.44
2022-08-23T15:43:55.797Z,25.42
2022-08-23T15:48:01.064Z,25.39
2022-08-23T15:52:03.131Z,25.32
2022-08-23T15:56:15.251Z,25.22
2022-08-23T16:00:19.993Z,25.14
2022-08-23T16:04:21.706Z,25.11
2022-08-23T16:08:27.566Z,25.06
2022-08-23T16:12:29.808Z,25.04
2022-08-23T16:16:36.662Z,25.05
2022-08-23T16:20:38.343Z,25.07
2022-08-23T16:24:40.002Z,25.11
2022-08-23T16:28:42.289Z,25.13
2022-08-23T16:32:43.915Z,25.08
2022-08-23T16:36:51.706Z,24.99
2022-08-23T16:40:53.302Z,24.91
2022-08-23T16:44:54.902Z,24.90
2022-08-23T16:48:56.634Z,24.87
2022-08-23T16:52:58.796Z,24.89
2022-08-23T16:57:02.044Z,24.91
2022-08-23T17:01:04.686Z,24.91
2022-08-23T17:05:10.397Z,24.82
2022-08-23T17:09:13.106Z,24.75
2022-08-23T17:13:15.835Z,24.75
2022-08-23T17:17:17.865Z,24.76
2022-08-23T17:21:19.455Z,24.75
2022-08-23T17:25:21.850Z,24.73
2022-08-23T17:29:23.484Z,24.66
2022-08-23T17:33:25.335Z,24.65
2022-08-23T17:37:27.058Z,24.59
2022-08-23T17:41:28.786Z,24.54
2022-08-23T17:45:47.255Z,24.54
2022-08-23T17:49:49.428Z,24.45
2022-08-23T17:53:51.106Z,24.30
2022-08-23T17:57:56.358Z,24.18
2022-08-23T18:02:04.657Z,24.11
2022-08-23T18:06:16.626Z,23.99
2022-08-23T18:10:18.789Z,23.85
2022-08-23T18:14:20.544Z,23.79
2022-08-23T18:18:22.150Z,23.70
2022-08-23T18:22:23.771Z,23.62
2022-08-23T18:26:44.410Z,23.58
2022-08-23T18:30:54.761Z,23.53
2022-08-23T18:34:56.490Z,23.48
2022-08-23T18:38:58.462Z,23.44
2022-08-23T18:43:00.036Z,23.41
2022-08-23T18:47:02.893Z,23.39
2022-08-23T18:51:05.550Z,23.36
2022-08-23T18:55:17.549Z,23.29
2022-08-23T18:59:19.434Z,23.23
2022-08-23T19:03:21.458Z,23.17
2022-08-23T19:07:23.109Z,23.14
2022-08-23T19:11:24.892Z,23.06
2022-08-23T19:15:29.479Z,23.02
2022-08-23T19:19:31.514Z,22.95
2022-08-23T19:23:33.644Z,22.90
2022-08-23T19:27:35.317Z,22.88
2022-08-23T19:31:42.809Z,22.88
2022-08-23T19:35:44.690Z,22.81
2022-08-23T19:39:46.524Z,22.77
2022-08-23T19:43:48.179Z,22.73
2022-08-23T19:47:49.884Z,22.71
2022-08-23T19:51:55.618Z,22.70
2022-08-23T19:56:01.875Z,22.65
2022-08-23T20:00:13.532Z,22.61
2022-08-23T20:04:17.988Z,22.56
2022-08-23T20:08:19.661Z,22.48
2022-08-23T20:12:21.269Z,22.43
2022-08-23T20:16:23.796Z,22.40
2022-08-23T20:20:25.832Z,22.37
2022-08-23T20:24:48.703Z,22.32
2022-08-23T20:28:59.029Z,22.28
2022-08-23T20:33:02.261Z,22.24
2022-08-23T20:37:05.187Z,22.21
2022-08-23T20:41:08.062Z,22.17
2022-08-23T20:45:10.648Z,22.17
2022-08-23T20:49:12.770Z,22.17
2022-08-23T20:53:14.763Z,22.17
2022-08-23T20:57:16.452Z,22.16
2022-08-23T21:01:18.848Z,22.13
2022-08-23T21:05:20.657Z,22.09
2022-08-23T21:09:27.454Z,22.01
2022-08-23T21:13:31.133Z,21.98
2022-08-23T21:17:32.863Z,21.93
2022-08-23T21:21:34.492Z,21.88
2022-08-23T21:25:36.146Z,21.82
2022-08-23T21:29:38.555Z,21.79
2022-08-23T21:33:42.115Z,21.74
2022-08-23T21:37:43.720Z,21.69
2022-08-23T21:41:48.198Z,21.67
2022-08-23T21:45:49.840Z,21.62
2022-08-23T21:49:52.381Z,21.60
2022-08-23T21:53:54.018Z,21.57
2022-08-23T21:57:55.608Z,21.51
2022-08-23T22:01:57.313Z,21.46
2022-08-23T22:05:59.000Z,21.42
2022-08-23T22:10:02.093Z,21.40
2022-08-23T22:14:03.700Z,21.39
2022-08-23T22:18:05.975Z,21.37
2022-08-23T22:22:07.701Z,21.32
2022-08-23T22:26:09.847Z,21.28
2022-08-23T22:30:11.841Z,21.25
2022-08-23T22:34:13.522Z,21.18
2022-08-23T22:38:15.200Z,21.12
2022-08-23T22:42:16.892Z,21.05
2022-08-23T22:46:19.361Z,21.00
2022-08-23T22:50:21.015Z,21.00
2022-08-23T22:54:23.374Z,21.01
2022-08-23T22:58:25.101Z,20.97
2022-08-23T23:02:26.917Z,20.93
2022-08-23T23:06:29.839Z,20.93
2022-08-23T23:10:31.468Z,20.91
2022-08-23T23:14:33.529Z,20.87
2022-08-23T23:18:35.727Z,20.85
2022-08-23T23:22:37.317Z,20.80
2022-08-23T23:26:39.425Z,20.79
2022-08-23T23:30:43.344Z,20.75
2022-08-23T23:34:45.198Z,20.70
2022-08-23T23:38:47.047Z,20.66
2022-08-23T23:42:48.862Z,20.65
2022-08-23T23:46:50.521Z,20.57
2022-08-23T23:50:52.122Z,20.54
2022-08-23T23:54:53.761Z,20.54
2022-08-23T23:58:56.807Z,20.58
